createdAt,value
2019-04-16T00:00:23.374Z,7.00
2019-04-16T00:02:52.238Z,6.30
2019-04-16T00:05:20.541Z,6.75
2019-04-16T00:07:51.518Z,8.33
2019-04-16T00:10:22.290Z,8.05
2019-04-16T00:13:05.404Z,6.70
2019-04-16T00:15:31.506Z,7.15
2019-04-16T00:17:57.715Z,10.43
2019-04-16T00:20:23.794Z,8.23
2019-04-16T00:22:54.638Z,6.92
2019-04-16T00:25:20.847Z,8.28
2019-04-16T00:27:47.139Z,7.05
2019-04-16T00:30:15.227Z,9.63
2019-04-16T00:32:42.660Z,9.43
2019-04-16T00:35:09.065Z,6.58
2019-04-16T00:37:35.179Z,6.10
2019-04-16T00:40:01.585Z,7.95
2019-04-16T00:42:27.676Z,6.37
2019-04-16T00:44:53.822Z,7.92
2019-04-16T00:47:20.159Z,6.90
2019-04-16T00:49:46.343Z,8.58
2019-04-16T00:52:12.466Z,7.28
2019-04-16T00:54:39.312Z,6.05
2019-04-16T00:57:06.665Z,8.90
2019-04-16T00:59:32.866Z,8.90
2019-04-16T01:01:58.992Z,7.03
2019-04-16T01:04:25.087Z,6.78
2019-04-16T01:06:51.488Z,9.93
2019-04-16T01:09:17.699Z,8.38
2019-04-16T01:11:46.053Z,6.78
2019-04-16T01:14:11.795Z,9.10
2019-04-16T01:16:38.022Z,7.42
2019-04-16T01:19:04.128Z,6.33
2019-04-16T01:21:30.215Z,6.65
2019-04-16T01:23:56.435Z,7.85
2019-04-16T01:26:24.248Z,5.55
2019-04-16T01:29:03.732Z,6.92
2019-04-16T01:31:40.101Z,6.80
2019-04-16T01:34:24.773Z,6.58
2019-04-16T01:37:04.797Z,6.83
2019-04-16T01:39:32.808Z,7.33
2019-04-16T01:41:58.914Z,6.83
2019-04-16T01:44:28.539Z,7.50
2019-04-16T01:46:53.047Z,6.97
2019-04-16T01:49:19.151Z,6.85
2019-04-16T01:51:47.568Z,8.05
2019-04-16T01:54:13.279Z,8.90
2019-04-16T01:56:39.366Z,6.67
2019-04-16T01:59:06.141Z,7.90
2019-04-16T02:01:32.385Z,7.85
2019-04-16T02:03:58.486Z,8.18
2019-04-16T02:06:25.976Z,7.03
2019-04-16T02:08:52.886Z,6.05
2019-04-16T02:11:18.994Z,7.37
2019-04-16T02:13:46.151Z,8.65
2019-04-16T02:16:13.097Z,7.53
2019-04-16T02:18:39.286Z,6.12
2019-04-16T02:21:09.611Z,6.10
2019-04-16T02:23:33.401Z,6.60
2019-04-16T02:25:59.556Z,5.47
2019-04-16T02:28:28.307Z,7.10
2019-04-16T02:30:53.699Z,6.55
2019-04-16T02:33:19.874Z,6.85
2019-04-16T02:35:46.070Z,7.80
2019-04-16T02:38:13.673Z,6.75
2019-04-16T02:40:40.203Z,6.45
2019-04-16T02:43:08.128Z,7.95
2019-04-16T02:45:34.415Z,7.90
2019-04-16T02:48:00.779Z,8.85
2019-04-16T02:50:31.978Z,8.73
2019-04-16T02:53:02.295Z,8.43
2019-04-16T02:55:42.584Z,7.87
2019-04-16T02:58:18.426Z,8.13
2019-04-16T03:01:01.630Z,8.65
2019-04-16T03:03:32.647Z,7.85
2019-04-16T03:06:00.908Z,7.90
2019-04-16T03:08:26.864Z,8.58
2019-04-16T03:10:52.958Z,8.30
2019-04-16T03:13:23.030Z,7.42
2019-04-16T03:16:02.803Z,6.42
2019-04-16T03:18:30.903Z,7.65
2019-04-16T03:20:57.007Z,8.20
2019-04-16T03:23:23.218Z,8.85
2019-04-16T03:25:49.334Z,6.37
2019-04-16T03:28:17.599Z,9.68
2019-04-16T03:30:43.709Z,8.03
2019-04-16T03:33:13.428Z,8.75
2019-04-16T03:35:37.932Z,8.05
2019-04-16T03:38:04.962Z,8.45
2019-04-16T03:40:32.046Z,7.47
2019-04-16T03:42:59.343Z,7.35
2019-04-16T03:45:26.239Z,7.37
2019-04-16T03:47:52.479Z,8.75
2019-04-16T03:50:18.684Z,7.92
2019-04-16T03:52:45.774Z,8.25
2019-04-16T03:55:12.144Z,6.80
2019-04-16T03:57:38.301Z,12.73
2019-04-16T04:00:05.303Z,8.98
2019-04-16T04:02:31.407Z,10.10
2019-04-16T04:05:00.822Z,10.85
2019-04-16T04:07:25.513Z,10.23
2019-04-16T04:09:54.541Z,7.20
2019-04-16T04:12:19.635Z,9.50
2019-04-16T04:14:45.750Z,9.20
2019-04-16T04:17:12.123Z,10.18
2019-04-16T04:19:38.383Z,11.85
2019-04-16T04:22:04.502Z,10.50
2019-04-16T04:24:31.420Z,8.53
2019-04-16T04:26:58.319Z,12.23
2019-04-16T04:29:26.324Z,9.65
2019-04-16T04:31:52.534Z,8.88
2019-04-16T04:34:18.690Z,8.63
2019-04-16T04:36:44.867Z,11.35
2019-04-16T04:39:14.910Z,10.32
2019-04-16T04:41:39.138Z,7.37
2019-04-16T04:44:05.418Z,7.65
2019-04-16T04:46:31.628Z,9.30
2019-04-16T04:49:00.152Z,9.20
2019-04-16T04:51:25.776Z,10.88
2019-04-16T04:53:51.982Z,8.18
2019-04-16T04:56:19.784Z,7.87
2019-04-16T04:58:46.218Z,9.00
2019-04-16T05:01:13.863Z,9.63
2019-04-16T05:04:02.028Z,7.67
2019-04-16T05:06:28.947Z,8.13
2019-04-16T05:08:57.598Z,7.87
2019-04-16T05:11:43.045Z,9.70
2019-04-16T05:14:09.175Z,9.23
2019-04-16T05:16:35.303Z,9.45
2019-04-16T05:19:01.504Z,7.90
2019-04-16T05:21:27.634Z,7.08
2019-04-16T05:23:56.773Z,7.20
2019-04-16T05:26:22.056Z,8.35
2019-04-16T05:28:48.355Z,9.48
2019-04-16T05:31:14.557Z,6.60
2019-04-16T05:33:40.775Z,7.12
2019-04-16T05:36:06.975Z,9.88
2019-04-16T05:38:33.257Z,9.80
2019-04-16T05:41:12.248Z,7.25
2019-04-16T05:43:30.044Z,10.78
2019-04-16T05:45:55.438Z,8.00
2019-04-16T05:48:22.757Z,11.25
2019-04-16T05:50:49.002Z,8.88
2019-04-16T05:53:15.141Z,8.98
2019-04-16T05:55:49.362Z,6.87
2019-04-16T05:58:14.114Z,12.43
2019-04-16T06:00:45.027Z,8.18
2019-04-16T06:03:11.135Z,7.97
2019-04-16T06:05:37.344Z,9.13
2019-04-16T06:08:10.399Z,8.95
2019-04-16T06:10:36.661Z,10.45
2019-04-16T06:13:13.697Z,9.78
2019-04-16T06:15:41.834Z,7.60
2019-04-16T06:18:26.442Z,7.87
2019-04-16T06:20:54.599Z,11.53
2019-04-16T06:23:32.658Z,7.67
2019-04-16T06:26:03.819Z,8.88
2019-04-16T06:28:40.854Z,9.55
2019-04-16T06:31:10.291Z,8.53
2019-04-16T06:33:38.722Z,9.25
2019-04-16T06:36:06.921Z,9.43
2019-04-16T06:38:43.763Z,11.08
2019-04-16T06:41:11.806Z,9.30
2019-04-16T06:43:45.788Z,9.00
2019-04-16T06:46:19.775Z,9.45
2019-04-16T06:48:47.907Z,8.13
2019-04-16T06:51:31.798Z,9.80
2019-04-16T06:54:03.341Z,9.53
2019-04-16T06:56:34.229Z,7.55
2019-04-16T06:59:02.396Z,8.50
2019-04-16T07:01:37.349Z,10.43
2019-04-16T07:04:06.905Z,11.95
2019-04-16T07:06:43.613Z,8.68
2019-04-16T07:09:23.495Z,8.93
2019-04-16T07:11:54.685Z,8.20
2019-04-16T07:14:17.717Z,12.63
2019-04-16T07:16:44.260Z,9.45
2019-04-16T07:19:11.663Z,9.60
2019-04-16T07:21:37.850Z,9.38
2019-04-16T07:24:04.036Z,10.10
2019-04-16T07:26:30.184Z,8.85
2019-04-16T07:29:13.280Z,9.88
2019-04-16T07:31:53.268Z,9.60
2019-04-16T07:34:29.587Z,9.38
2019-04-16T07:37:03.704Z,7.90
2019-04-16T07:39:46.728Z,7.70
2019-04-16T07:42:26.903Z,8.03
2019-04-16T07:45:13.010Z,14.20
2019-04-16T07:47:41.391Z,10.20
2019-04-16T07:50:29.563Z,9.35
2019-04-16T07:52:59.143Z,9.48
2019-04-16T07:55:43.973Z,9.38
2019-04-16T07:58:13.017Z,8.30
2019-04-16T08:00:41.411Z,12.33
2019-04-16T08:03:07.424Z,11.00
2019-04-16T08:05:33.612Z,10.38
2019-04-16T08:07:59.728Z,10.45
2019-04-16T08:10:25.943Z,10.95
2019-04-16T08:12:56.919Z,11.22
2019-04-16T08:15:22.198Z,10.08
2019-04-16T08:17:48.296Z,9.53
2019-04-16T08:20:14.402Z,10.08
2019-04-16T08:22:40.509Z,8.78
2019-04-16T08:25:06.836Z,9.25
2019-04-16T08:27:33.269Z,9.13
2019-04-16T08:30:03.471Z,9.85
2019-04-16T08:32:27.729Z,10.48
2019-04-16T08:34:53.938Z,9.50
2019-04-16T08:37:20.128Z,9.63
2019-04-16T08:39:46.209Z,8.60
2019-04-16T08:42:12.430Z,9.50
2019-04-16T08:44:38.526Z,10.58
2019-04-16T08:47:04.641Z,10.30
2019-04-16T08:49:30.730Z,11.05
2019-04-16T08:51:56.847Z,10.35
2019-04-16T08:54:23.214Z,8.88
2019-04-16T08:56:49.353Z,7.53
2019-04-16T08:59:15.448Z,10.03
2019-04-16T09:01:41.609Z,8.68
2019-04-16T09:04:07.822Z,12.25
2019-04-16T09:06:33.942Z,9.40
2019-04-16T09:09:12.414Z,8.35
2019-04-16T09:11:35.051Z,9.03
2019-04-16T09:14:03.783Z,9.80
2019-04-16T09:16:31.779Z,10.28
2019-04-16T09:19:12.211Z,12.05
2019-04-16T09:21:43.446Z,10.72
2019-04-16T09:24:26.437Z,9.65
2019-04-16T09:26:57.543Z,9.93
2019-04-16T09:29:25.587Z,8.38
2019-04-16T09:32:10.080Z,7.87
2019-04-16T09:35:07.455Z,9.38
2019-04-16T09:37:25.414Z,8.43
2019-04-16T09:40:16.772Z,10.70
2019-04-16T09:42:37.504Z,8.45
2019-04-16T09:45:08.871Z,11.55
2019-04-16T09:47:35.063Z,10.23
2019-04-16T09:50:01.296Z,8.43
2019-04-16T09:52:27.394Z,8.73
2019-04-16T09:54:53.519Z,9.08
2019-04-16T09:57:19.730Z,9.45
2019-04-16T09:59:48.407Z,7.20
2019-04-16T10:02:16.894Z,10.58
2019-04-16T10:04:43.226Z,9.35
2019-04-16T10:07:09.648Z,8.70
2019-04-16T10:09:35.768Z,7.65
2019-04-16T10:12:04.854Z,9.73
2019-04-16T10:14:29.906Z,9.23
2019-04-16T10:16:56.283Z,11.60
2019-04-16T10:19:22.386Z,12.00
2019-04-16T10:21:52.957Z,10.68
2019-04-16T10:24:18.395Z,9.73
2019-04-16T10:26:46.433Z,8.98
2019-04-16T10:29:14.542Z,9.18
2019-04-16T10:31:40.870Z,10.00
2019-04-16T10:34:06.976Z,10.65
2019-04-16T10:36:37.125Z,8.35
2019-04-16T10:39:11.674Z,9.03
2019-04-16T10:41:39.804Z,9.95
2019-04-16T10:44:19.614Z,9.35
2019-04-16T10:46:47.878Z,11.33
2019-04-16T10:49:21.520Z,10.78
2019-04-16T10:51:55.412Z,12.63
2019-04-16T10:54:29.405Z,12.30
2019-04-16T10:57:06.625Z,12.23
2019-04-16T10:59:40.717Z,10.82
2019-04-16T11:02:10.670Z,12.55
2019-04-16T11:04:43.360Z,8.80
2019-04-16T11:07:26.600Z,12.68
2019-04-16T11:09:52.837Z,15.40
2019-04-16T11:12:19.891Z,14.10
2019-04-16T11:14:46.246Z,10.82
2019-04-16T11:17:12.571Z,13.88
2019-04-16T11:19:38.833Z,14.03
2019-04-16T11:22:05.692Z,10.60
2019-04-16T11:24:32.042Z,15.40
2019-04-16T11:26:58.248Z,13.80
2019-04-16T11:29:24.355Z,11.93
2019-04-16T11:31:50.560Z,11.45
2019-04-16T11:34:16.662Z,10.45
2019-04-16T11:36:42.979Z,7.15
2019-04-16T11:39:09.892Z,8.80
2019-04-16T11:41:36.530Z,12.40
2019-04-16T11:44:14.999Z,15.20
2019-04-16T11:46:31.100Z,15.78
2019-04-16T11:48:57.249Z,14.40
2019-04-16T11:51:23.410Z,11.12
2019-04-16T11:53:49.581Z,11.30
2019-04-16T11:56:16.196Z,16.50
2019-04-16T11:58:44.436Z,10.85
2019-04-16T12:01:28.878Z,8.80
2019-04-16T12:04:05.686Z,9.38
2019-04-16T12:06:50.512Z,9.73
2019-04-16T12:09:35.065Z,10.63
2019-04-16T12:12:03.150Z,14.58
2019-04-16T12:14:34.649Z,10.35
2019-04-16T12:17:01.159Z,10.60
2019-04-16T12:19:31.978Z,10.90
2019-04-16T12:22:00.100Z,11.50
2019-04-16T12:24:34.350Z,7.78
2019-04-16T12:27:05.058Z,11.48
2019-04-16T12:29:49.504Z,11.85
2019-04-16T12:32:17.536Z,13.95
2019-04-16T12:34:45.597Z,12.28
2019-04-16T12:37:19.390Z,11.28
2019-04-16T12:39:50.333Z,9.45
2019-04-16T12:42:21.259Z,11.30
2019-04-16T12:44:52.185Z,15.08
2019-04-16T12:47:38.329Z,13.62
2019-04-16T12:50:21.528Z,14.43
2019-04-16T12:52:54.963Z,12.00
2019-04-16T12:55:31.855Z,12.85
2019-04-16T12:58:03.115Z,10.65
2019-04-16T13:00:46.162Z,11.85
2019-04-16T13:03:18.213Z,12.73
2019-04-16T13:08:14.515Z,12.28
2019-04-16T13:10:51.361Z,12.00
2019-04-16T13:13:36.409Z,12.23
2019-04-16T13:16:13.308Z,14.83
2019-04-16T13:18:58.094Z,10.70
2019-04-16T13:21:26.113Z,15.50
2019-04-16T13:23:56.873Z,11.10
2019-04-16T13:26:24.895Z,9.30
2019-04-16T13:28:55.484Z,13.80
2019-04-16T13:31:22.126Z,12.78
2019-04-16T13:33:50.876Z,10.20
2019-04-16T13:36:16.520Z,8.90
2019-04-16T13:38:50.624Z,13.50
2019-04-16T13:41:16.729Z,14.35
2019-04-16T13:43:56.774Z,11.35
2019-04-16T13:46:22.927Z,9.53
2019-04-16T13:49:00.720Z,9.03
2019-04-16T13:51:29.701Z,11.97
2019-04-16T13:54:01.863Z,8.93
2019-04-16T13:56:36.204Z,17.48
2019-04-16T13:59:07.771Z,14.45
2019-04-16T14:01:39.369Z,13.62
2019-04-16T14:04:03.916Z,13.48
2019-04-16T14:06:30.254Z,15.88
2019-04-16T14:08:56.367Z,12.40
2019-04-16T14:11:22.462Z,7.12
2019-04-16T14:13:51.816Z,12.33
2019-04-16T14:16:18.107Z,10.88
2019-04-16T14:18:44.245Z,20.95
2019-04-16T14:21:10.334Z,14.33
2019-04-16T14:23:36.442Z,13.75
2019-04-16T14:26:02.738Z,11.78
2019-04-16T14:28:33.808Z,15.60
2019-04-16T14:30:57.001Z,13.22
2019-04-16T14:33:43.308Z,10.45
2019-04-16T14:36:10.915Z,17.32
2019-04-16T14:38:44.719Z,13.10
2019-04-16T14:41:14.454Z,9.68
2019-04-16T14:43:40.946Z,15.88
2019-04-16T14:46:09.264Z,14.45
2019-04-16T14:48:35.142Z,15.65
2019-04-16T14:51:01.256Z,19.60
2019-04-16T14:53:38.399Z,14.10
2019-04-16T14:56:12.162Z,15.40
2019-04-16T14:58:40.415Z,10.78
2019-04-16T15:01:25.033Z,15.08
2019-04-16T15:04:01.824Z,16.70
2019-04-16T15:06:29.950Z,12.37
2019-04-16T15:09:14.458Z,13.55
2019-04-16T15:11:48.112Z,14.07
2019-04-16T15:14:16.190Z,13.88
2019-04-16T15:16:59.228Z,11.28
2019-04-16T15:19:27.217Z,8.60
2019-04-16T15:22:14.356Z,11.28
2019-04-16T15:24:59.726Z,17.30
2019-04-16T15:27:33.690Z,16.05
2019-04-16T15:30:04.625Z,14.83
2019-04-16T15:32:41.396Z,16.37
2019-04-16T15:35:14.079Z,10.30
2019-04-16T15:37:45.174Z,14.38
2019-04-16T15:40:12.838Z,11.05
2019-04-16T15:42:40.874Z,13.32
2019-04-16T15:45:22.190Z,11.68
2019-04-16T15:47:50.614Z,12.03
2019-04-16T15:50:21.766Z,12.37
2019-04-16T15:52:58.547Z,11.90
2019-04-16T15:55:38.539Z,11.25
2019-04-16T15:58:21.787Z,18.80
2019-04-16T16:00:49.909Z,15.88
2019-04-16T16:03:23.758Z,12.70
2019-04-16T16:06:09.896Z,9.88
2019-04-16T16:08:46.992Z,12.33
2019-04-16T16:11:18.051Z,10.48
2019-04-16T16:13:44.629Z,10.58
2019-04-16T16:16:17.585Z,13.15
2019-04-16T16:18:39.813Z,13.60
2019-04-16T16:21:06.151Z,14.15
2019-04-16T16:23:34.151Z,11.90
2019-04-16T16:26:00.298Z,14.90
2019-04-16T16:28:26.390Z,14.90
2019-04-16T16:30:52.502Z,12.03
2019-04-16T16:33:18.626Z,13.50
2019-04-16T16:35:56.817Z,9.28
2019-04-16T16:38:14.150Z,10.63
2019-04-16T16:40:40.871Z,11.83
2019-04-16T16:43:08.585Z,9.85
2019-04-16T16:45:39.658Z,23.92
2019-04-16T16:48:05.975Z,20.77
2019-04-16T16:50:32.202Z,15.90
2019-04-16T16:53:03.382Z,13.48
2019-04-16T16:55:37.722Z,11.30
2019-04-16T16:58:11.857Z,10.28
2019-04-16T17:00:48.894Z,9.68
2019-04-16T17:03:33.611Z,11.97
2019-04-16T17:06:00.113Z,9.25
2019-04-16T17:08:27.057Z,11.63
2019-04-16T17:10:54.392Z,10.08
2019-04-16T17:13:21.201Z,15.10
2019-04-16T17:15:47.799Z,12.30
2019-04-16T17:18:13.915Z,14.50
2019-04-16T17:20:41.469Z,16.90
2019-04-16T17:23:08.295Z,11.22
2019-04-16T17:25:36.534Z,9.03
2019-04-16T17:28:02.748Z,12.95
2019-04-16T17:30:29.563Z,13.20
2019-04-16T17:32:55.652Z,11.90
2019-04-16T17:35:21.776Z,12.95
2019-04-16T17:37:47.962Z,11.70
2019-04-16T17:40:18.975Z,12.90
2019-04-16T17:42:46.974Z,10.85
2019-04-16T17:45:33.116Z,12.33
2019-04-16T17:48:01.105Z,13.08
2019-04-16T17:50:29.111Z,10.75
2019-04-16T17:53:03.231Z,17.05
2019-04-16T17:55:31.233Z,13.93
2019-04-16T17:57:59.284Z,10.05
2019-04-16T18:00:27.476Z,10.63
2019-04-16T18:03:03.029Z,10.95
2019-04-16T18:05:30.931Z,12.37
2019-04-16T18:08:15.674Z,10.82
2019-04-16T18:10:46.464Z,12.10
2019-04-16T18:13:16.991Z,9.33
2019-04-16T18:15:51.217Z,13.95
2019-04-16T18:18:19.513Z,10.70
2019-04-16T18:21:04.515Z,10.58
2019-04-16T18:23:35.393Z,11.22
2019-04-16T18:26:20.205Z,13.30
2019-04-16T18:29:01.960Z,15.60
2019-04-16T18:31:42.425Z,11.97
2019-04-16T18:34:27.066Z,10.70
2019-04-16T18:36:55.258Z,10.05
2019-04-16T18:39:37.525Z,16.35
2019-04-16T18:42:11.740Z,14.87
2019-04-16T18:44:51.338Z,11.88
2019-04-16T18:47:18.918Z,10.88
2019-04-16T18:49:46.963Z,9.55
2019-04-16T18:52:13.247Z,12.30
2019-04-16T18:54:39.455Z,11.35
2019-04-16T18:57:05.882Z,9.73
2019-04-16T18:59:32.002Z,9.35
2019-04-16T19:02:03.028Z,11.33
2019-04-16T19:04:29.535Z,14.43
2019-04-16T19:06:55.787Z,11.10
2019-04-16T19:09:22.190Z,8.88
2019-04-16T19:11:48.279Z,10.05
2019-04-16T19:14:14.384Z,15.80
2019-04-16T19:16:40.647Z,11.10
2019-04-16T19:19:06.822Z,12.18
2019-04-16T19:21:32.951Z,11.15
2019-04-16T19:23:59.085Z,13.08
2019-04-16T19:26:25.203Z,9.78
2019-04-16T19:28:51.347Z,9.80
2019-04-16T19:31:22.741Z,10.43
2019-04-16T19:33:45.451Z,13.30
2019-04-16T19:36:11.684Z,14.05
2019-04-16T19:38:39.503Z,12.28
2019-04-16T19:41:09.063Z,11.45
2019-04-16T19:43:35.703Z,12.30
2019-04-16T19:46:02.146Z,11.15
2019-04-16T19:48:35.659Z,9.55
2019-04-16T19:50:56.278Z,10.85
2019-04-16T19:53:22.499Z,11.15
2019-04-16T19:55:48.790Z,11.57
2019-04-16T19:58:15.184Z,13.13
2019-04-16T20:00:41.602Z,12.33
2019-04-16T20:03:08.152Z,11.25
2019-04-16T20:05:34.702Z,15.72
2019-04-16T20:08:01.161Z,11.70
2019-04-16T20:10:27.315Z,13.18
2019-04-16T20:12:53.767Z,11.40
2019-04-16T20:15:21.816Z,11.48
2019-04-16T20:17:48.097Z,17.02
2019-04-16T20:20:14.187Z,14.15
2019-04-16T20:22:40.325Z,10.93
2019-04-16T20:25:06.866Z,11.03
2019-04-16T20:27:36.207Z,11.53
2019-04-16T20:30:01.083Z,9.70
2019-04-16T20:32:30.962Z,11.25
2019-04-16T20:34:56.474Z,11.18
2019-04-16T20:37:22.745Z,10.08
2019-04-16T20:39:48.955Z,7.83
2019-04-16T20:42:15.064Z,8.98
2019-04-16T20:44:41.482Z,9.03
2019-04-16T20:47:08.858Z,8.18
2019-04-16T20:49:35.192Z,9.60
2019-04-16T20:52:02.532Z,8.58
2019-04-16T20:54:29.331Z,6.65
2019-04-16T20:56:55.532Z,7.03
2019-04-16T20:59:21.652Z,8.28
2019-04-16T21:01:47.774Z,6.22
2019-04-16T21:04:13.880Z,5.60
2019-04-16T21:06:41.936Z,6.47
2019-04-16T21:09:08.194Z,6.92
2019-04-16T21:11:34.324Z,6.72
2019-04-16T21:14:00.547Z,5.92
2019-04-16T21:16:26.992Z,5.95
2019-04-16T21:18:53.115Z,6.62
2019-04-16T21:21:19.600Z,6.70
2019-04-16T21:23:47.362Z,5.92
2019-04-16T21:26:13.484Z,6.90
2019-04-16T21:28:53.759Z,6.60
2019-04-16T21:31:21.879Z,5.72
2019-04-16T21:33:52.311Z,5.70
2019-04-16T21:36:25.649Z,6.05
2019-04-16T21:39:10.501Z,5.80
2019-04-16T21:41:36.611Z,5.25
2019-04-16T21:44:02.986Z,5.70
2019-04-16T21:46:29.418Z,5.47
2019-04-16T21:48:59.759Z,5.83
2019-04-16T21:51:24.333Z,5.53
2019-04-16T21:53:50.534Z,7.72
2019-04-16T21:56:16.647Z,5.00
2019-04-16T21:58:42.758Z,5.17
2019-04-16T22:01:10.777Z,5.28
2019-04-16T22:03:41.764Z,3.80
2019-04-16T22:06:05.003Z,6.20
2019-04-16T22:08:31.095Z,5.78
2019-04-16T22:10:57.703Z,5.53
2019-04-16T22:13:23.927Z,4.55
2019-04-16T22:15:50.130Z,4.92
2019-04-16T22:18:16.333Z,4.53
2019-04-16T22:20:42.419Z,6.30
2019-04-16T22:23:08.542Z,5.33
2019-04-16T22:25:34.643Z,6.28
2019-04-16T22:28:00.769Z,5.75
2019-04-16T22:30:26.959Z,5.37
2019-04-16T22:32:53.057Z,4.28
2019-04-16T22:35:19.197Z,5.00
2019-04-16T22:37:45.447Z,5.08
2019-04-16T22:40:16.240Z,5.60
2019-04-16T22:45:45.625Z,5.58
2019-04-16T22:48:11.715Z,4.50
2019-04-16T22:50:38.672Z,4.00
2019-04-16T22:53:05.027Z,6.12
2019-04-16T22:55:31.158Z,5.20
2019-04-16T22:57:59.865Z,4.58
2019-04-16T23:03:10.333Z,5.25
2019-04-16T23:05:36.450Z,5.10
2019-04-16T23:08:02.809Z,5.65
2019-04-16T23:10:29.143Z,8.18
2019-04-16T23:12:59.537Z,5.37
2019-04-16T23:15:24.459Z,5.10
2019-04-16T23:17:50.574Z,5.95
2019-04-16T23:20:28.662Z,4.90
2019-04-16T23:22:46.480Z,6.75
2019-04-16T23:25:12.819Z,5.87
2019-04-16T23:27:38.940Z,5.67
2019-04-16T23:30:05.377Z,5.50
2019-04-16T23:32:31.519Z,6.72
2019-04-16T23:34:57.618Z,6.10
2019-04-16T23:37:24.059Z,6.78
2019-04-16T23:39:50.638Z,6.65
2019-04-16T23:42:19.021Z,5.95
2019-04-16T23:44:46.758Z,5.42
2019-04-16T23:50:15.236Z,6.20
2019-04-16T23:52:46.464Z,6.05
2019-04-16T23:55:29.880Z,5.12
2019-04-16T23:58:03.805Z,5.22
